Time,TemperatureF,DewpointF,PressureIn,WindDirection,WindDirectionDegrees,WindSpeedMPH,WindSpeedGustMPH,Humidity,HourlyPrecipIn,Conditions,Clouds,dailyrainin,SolarRadiationWatts/m^2,SoftwareType,DateUTC
2013-03-09 00:02:00,51.0,48.0,-100.00,North,8,4.0,-999.0,90,0.00,,,-99.99,0.000000,,2013-03-09 05:02:00,
2013-03-09 00:12:00,51.0,48.0,-100.00,North,5,4.0,-999.0,89,0.00,,,-99.99,0.000000,,2013-03-09 05:12:00,
2013-03-09 00:22:00,51.0,48.0,-100.00,North,5,4.0,-999.0,89,0.00,,,-99.99,0.000000,,2013-03-09 05:22:00,
2013-03-09 00:32:00,51.0,48.0,-100.00,North,354,5.0,-999.0,88,0.00,,,-99.99,0.000000,,2013-03-09 05:32:00,
2013-03-09 00:42:00,51.0,47.0,-100.00,North,356,5.0,-999.0,88,0.00,,,-99.99,0.000000,,2013-03-09 05:42:00,
2013-03-09 00:53:00,51.0,47.0,-100.00,North,356,5.0,-999.0,88,0.00,,,-99.99,0.000000,,2013-03-09 05:53:00,
2013-03-09 01:02:00,51.0,47.0,-100.00,NNE,12,5.0,-999.0,88,0.00,,,-99.99,0.000000,,2013-03-09 06:02:00,
2013-03-09 01:11:00,51.0,48.0,-100.00,NNE,27,4.0,-999.0,88,0.00,,,-99.99,0.000000,,2013-03-09 06:11:00,
2013-03-09 01:22:00,51.0,48.0,-100.00,NNE,27,4.0,-999.0,88,0.00,,,-99.99,0.000000,,2013-03-09 06:22:00,
2013-03-09 01:32:00,52.0,48.0,-100.00,NNE,33,4.0,-999.0,87,0.00,,,-99.99,0.000000,,2013-03-09 06:32:00,
2013-03-09 01:42:00,50.0,47.0,-100.00,NE,45,2.0,-999.0,88,0.00,,,-99.99,0.000000,,2013-03-09 06:42:00,
2013-03-09 01:52:00,50.0,47.0,-100.00,NE,45,2.0,-999.0,88,0.00,,,-99.99,0.000000,,2013-03-09 06:52:00,
2013-03-09 02:01:00,49.0,46.0,-100.00,NNE,31,1.0,-999.0,90,0.00,,,-99.99,0.000000,,2013-03-09 07:01:00,
2013-03-09 02:11:00,49.0,47.0,-100.00,North,2,4.0,-999.0,92,0.00,,,-99.99,0.000000,,2013-03-09 07:11:00,
2013-03-09 02:21:00,49.0,47.0,-100.00,North,2,4.0,-999.0,92,0.00,,,-99.99,0.000000,,2013-03-09 07:21:00,
2013-03-09 02:32:00,50.0,48.0,-100.00,North,11,5.0,-999.0,92,0.00,,,-99.99,0.000000,,2013-03-09 07:32:00,
2013-03-09 02:42:00,50.0,48.0,-100.00,NNE,17,5.0,-999.0,91,0.00,,,-99.99,0.000000,,2013-03-09 07:42:00,
2013-03-09 02:52:00,50.0,48.0,-100.00,NNE,17,5.0,-999.0,91,0.00,,,-99.99,0.000000,,2013-03-09 07:52:00,
2013-03-09 03:01:00,50.0,48.0,-100.00,NNE,22,5.0,-999.0,91,0.00,,,-99.99,0.000000,,2013-03-09 08:01:00,
2013-03-09 03:11:00,51.0,49.0,-100.00,NNE,23,5.0,-999.0,91,0.00,,,-99.99,0.000000,,2013-03-09 08:11:00,
2013-03-09 03:22:00,51.0,49.0,-100.00,NNE,23,5.0,-999.0,91,0.00,,,-99.99,0.000000,,2013-03-09 08:22:00,
2013-03-09 03:32:00,52.0,49.0,-100.00,NNE,28,6.0,-999.0,89,0.00,,,-99.99,0.000000,,2013-03-09 08:32:00,
2013-03-09 03:42:00,52.0,49.0,-100.00,NNE,28,7.0,-999.0,88,0.00,,,-99.99,0.000000,,2013-03-09 08:42:00,
2013-03-09 03:52:00,52.0,49.0,-100.00,NNE,28,7.0,-999.0,88,0.00,,,-99.99,0.000000,,2013-03-09 08:52:00,
2013-03-09 04:02:00,52.0,49.0,-100.00,NNE,33,7.0,-999.0,86,0.00,,,-99.99,0.000000,,2013-03-09 09:02:00,
2013-03-09 04:12:00,52.0,48.0,-100.00,NNE,29,7.0,-999.0,86,0.00,,,-99.99,0.000000,,2013-03-09 09:12:00,
2013-03-09 04:21:00,52.0,48.0,-100.00,NNE,29,7.0,-999.0,86,0.00,,,-99.99,0.000000,,2013-03-09 09:21:00,
2013-03-09 04:32:00,52.0,48.0,-100.00,NNE,26,8.0,-999.0,86,0.00,,,-99.99,0.000000,,2013-03-09 09:32:00,
2013-03-09 04:42:00,52.0,48.0,-100.00,NNE,24,7.0,-999.0,85,0.00,,,-99.99,0.000000,,2013-03-09 09:42:00,
2013-03-09 04:52:00,52.0,48.0,-100.00,NNE,24,7.0,-999.0,85,0.00,,,-99.99,0.000000,,2013-03-09 09:52:00,
2013-03-09 05:01:00,52.0,48.0,-100.00,NNE,17,6.0,-999.0,86,0.00,,,-99.99,0.000000,,2013-03-09 10:01:00,
2013-03-09 05:11:00,51.0,48.0,-100.00,North,2,5.0,-999.0,87,0.00,,,-99.99,0.000000,,2013-03-09 10:11:00,
2013-03-09 05:21:00,51.0,48.0,-100.00,North,2,5.0,-999.0,87,0.00,,,-99.99,0.000000,,2013-03-09 10:21:00,
2013-03-09 05:31:00,51.0,47.0,-100.00,North,359,5.0,-999.0,88,0.00,,,-99.99,0.000000,,2013-03-09 10:31:00,
2013-03-09 05:42:00,51.0,47.0,-100.00,North,7,4.0,-999.0,87,0.00,,,-99.99,0.000000,,2013-03-09 10:42:00,
2013-03-09 05:52:00,51.0,47.0,-100.00,North,7,4.0,-999.0,87,0.00,,,-99.99,0.000000,,2013-03-09 10:52:00,
2013-03-09 06:01:00,50.0,47.0,-100.00,North,4,4.0,-999.0,88,0.00,,,-99.99,0.000000,,2013-03-09 11:01:00,
2013-03-09 06:11:00,50.0,47.0,-100.00,North,0,5.0,-999.0,88,0.00,,,-99.99,0.000000,,2013-03-09 11:11:00,
2013-03-09 06:21:00,50.0,47.0,-100.00,North,0,5.0,-999.0,88,0.00,,,-99.99,0.000000,,2013-03-09 11:21:00,
2013-03-09 06:32:00,50.0,47.0,-100.00,North,354,5.0,-999.0,88,0.00,,,-99.99,0.000000,,2013-03-09 11:32:00,
2013-03-09 06:42:00,50.0,46.0,-100.00,North,350,5.0,-999.0,87,0.00,,,-99.99,0.100000,,2013-03-09 11:42:00,
2013-03-09 06:52:00,50.0,46.0,-100.00,North,350,5.0,-999.0,87,0.00,,,-99.99,0.100000,,2013-03-09 11:52:00,
2013-03-09 07:01:00,49.0,46.0,-100.00,NNW,345,6.0,-999.0,88,0.00,,,-99.99,2.700000,,2013-03-09 12:01:00,
2013-03-09 07:11:00,49.0,46.0,-100.00,North,5,6.0,-999.0,89,0.00,,,-99.99,13.800000,,2013-03-09 12:11:00,
2013-03-09 07:21:00,49.0,46.0,-100.00,North,5,6.0,-999.0,89,0.00,,,-99.99,13.800000,,2013-03-09 12:21:00,
2013-03-09 07:32:00,50.0,47.0,-100.00,NNE,21,5.0,-999.0,88,0.00,,,-99.99,54.900002,,2013-03-09 12:32:00,
2013-03-09 07:42:00,52.0,48.0,-100.00,NNE,21,5.0,-999.0,86,0.00,,,-99.99,108.800003,,2013-03-09 12:42:00,
2013-03-09 07:52:00,52.0,48.0,-100.00,NNE,21,5.0,-999.0,86,0.00,,,-99.99,108.800003,,2013-03-09 12:52:00,
2013-03-09 08:02:00,52.0,48.0,-100.00,NNE,21,5.0,-999.0,86,0.00,,,-99.99,108.800003,,2013-03-09 13:02:00,
2013-03-09 08:11:00,56.0,49.0,-100.00,NNE,27,6.0,-999.0,76,0.00,,,-99.99,205.699997,,2013-03-09 13:11:00,
2013-03-09 08:21:00,56.0,49.0,-100.00,NNE,27,6.0,-999.0,76,0.00,,,-99.99,205.699997,,2013-03-09 13:21:00,
2013-03-09 08:32:00,58.0,49.0,-100.00,NNE,30,6.0,-999.0,73,0.00,,,-99.99,258.700012,,2013-03-09 13:32:00,
2013-03-09 08:42:00,59.0,49.0,-100.00,NE,41,7.0,-999.0,68,0.00,,,-99.99,310.700012,,2013-03-09 13:42:00,
2013-03-09 08:52:00,59.0,49.0,-100.00,NE,41,7.0,-999.0,68,0.00,,,-99.99,310.700012,,2013-03-09 13:52:00,
2013-03-09 09:01:00,60.0,48.0,-100.00,NE,42,8.0,-999.0,64,0.00,,,-99.99,366.500000,,2013-03-09 14:01:00,
2013-03-09 09:11:00,60.0,49.0,-100.00,NE,39,8.0,-999.0,64,0.00,,,-99.99,416.200012,,2013-03-09 14:11:00,
2013-03-09 09:21:00,60.0,49.0,-100.00,NE,39,8.0,-999.0,64,0.00,,,-99.99,416.200012,,2013-03-09 14:21:00,
2013-03-09 09:32:00,62.0,49.0,-100.00,NE,42,9.0,-999.0,63,0.00,,,-99.99,468.799988,,2013-03-09 14:32:00,
2013-03-09 09:42:00,63.0,50.0,-100.00,NE,34,7.0,-999.0,61,0.00,,,-99.99,476.299988,,2013-03-09 14:42:00,
2013-03-09 09:52:00,63.0,50.0,-100.00,NE,34,7.0,-999.0,61,0.00,,,-99.99,476.299988,,2013-03-09 14:52:00,
2013-03-09 10:02:00,66.0,50.0,-100.00,NE,54,8.0,-999.0,57,0.00,,,-99.99,440.799988,,2013-03-09 15:02:00,
2013-03-09 10:12:00,66.0,50.0,-100.00,ENE,73,8.0,-999.0,55,0.00,,,-99.99,528.000000,,2013-03-09 15:12:00,
2013-03-09 10:22:00,66.0,50.0,-100.00,ENE,73,8.0,-999.0,55,0.00,,,-99.99,528.000000,,2013-03-09 15:22:00,
2013-03-09 10:32:00,67.0,50.0,-100.00,ENE,70,9.0,-999.0,54,0.00,,,-99.99,661.000000,,2013-03-09 15:32:00,
2013-03-09 10:42:00,67.0,50.0,-100.00,East,84,10.0,-999.0,54,0.00,,,-99.99,697.099976,,2013-03-09 15:42:00,
2013-03-09 10:52:00,67.0,50.0,-100.00,East,84,10.0,-999.0,54,0.00,,,-99.99,697.099976,,2013-03-09 15:52:00,
2013-03-09 11:01:00,68.0,50.0,-100.00,East,88,9.0,-999.0,53,0.00,,,-99.99,708.000000,,2013-03-09 16:01:00,
2013-03-09 11:11:00,69.0,50.0,-100.00,ENE,62,8.0,-999.0,51,0.00,,,-99.99,721.000000,,2013-03-09 16:11:00,
2013-03-09 11:21:00,69.0,50.0,-100.00,ENE,62,8.0,-999.0,51,0.00,,,-99.99,721.000000,,2013-03-09 16:21:00,
2013-03-09 11:32:00,69.0,49.0,-100.00,NE,46,7.0,-999.0,49,0.00,,,-99.99,774.000000,,2013-03-09 16:32:00,
2013-03-09 11:42:00,70.0,48.0,-100.00,ENE,75,7.0,-999.0,45,0.00,,,-99.99,809.000000,,2013-03-09 16:42:00,
2013-03-09 11:52:00,70.0,48.0,-100.00,ENE,75,7.0,-999.0,45,0.00,,,-99.99,809.000000,,2013-03-09 16:52:00,
2013-03-09 12:01:00,70.0,45.0,-100.00,NE,51,6.0,-999.0,40,0.00,,,-99.99,634.400024,,2013-03-09 17:01:00,
2013-03-09 12:11:00,71.0,43.0,-100.00,ENE,77,6.0,-999.0,36,0.00,,,-99.99,789.000000,,2013-03-09 17:11:00,
2013-03-09 12:22:00,71.0,43.0,-100.00,ENE,77,6.0,-999.0,36,0.00,,,-99.99,789.000000,,2013-03-09 17:22:00,
2013-03-09 12:32:00,71.0,43.0,-100.00,ENE,77,6.0,-999.0,36,0.00,,,-99.99,789.000000,,2013-03-09 17:32:00,
2013-03-09 12:42:00,72.0,43.0,-100.00,ENE,71,5.0,-999.0,34,0.00,,,-99.99,824.000000,,2013-03-09 17:42:00,
2013-03-09 12:52:00,72.0,43.0,-100.00,ENE,71,5.0,-999.0,34,0.00,,,-99.99,824.000000,,2013-03-09 17:52:00,
2013-03-09 13:02:00,73.0,44.0,-100.00,ENE,64,7.0,-999.0,35,0.00,,,-99.99,735.000000,,2013-03-09 18:02:00,
2013-03-09 13:11:00,73.0,46.0,-100.00,ENE,58,9.0,-999.0,37,0.00,,,-99.99,709.000000,,2013-03-09 18:11:00,
2013-03-09 13:21:00,73.0,46.0,-100.00,ENE,58,9.0,-999.0,37,0.00,,,-99.99,709.000000,,2013-03-09 18:21:00,
2013-03-09 13:32:00,73.0,46.0,-100.00,NE,51,8.0,-999.0,37,0.00,,,-99.99,718.000000,,2013-03-09 18:32:00,
2013-03-09 13:42:00,73.0,46.0,-100.00,NE,42,8.0,-999.0,37,0.00,,,-99.99,781.000000,,2013-03-09 18:42:00,
2013-03-09 13:52:00,73.0,46.0,-100.00,NE,42,8.0,-999.0,37,0.00,,,-99.99,781.000000,,2013-03-09 18:52:00,
2013-03-09 14:01:00,74.0,47.0,-100.00,NNE,32,9.0,-999.0,38,0.00,,,-99.99,669.000000,,2013-03-09 19:01:00,
2013-03-09 14:12:00,74.0,45.0,-100.00,NE,54,7.0,-999.0,36,0.00,,,-99.99,564.799988,,2013-03-09 19:12:00,
2013-03-09 14:22:00,74.0,45.0,-100.00,NE,54,7.0,-999.0,36,0.00,,,-99.99,564.799988,,2013-03-09 19:22:00,
2013-03-09 14:32:00,74.0,46.0,-100.00,ENE,58,11.0,-999.0,37,0.00,,,-99.99,734.000000,,2013-03-09 19:32:00,
2013-03-09 14:42:00,74.0,45.0,-100.00,NE,48,8.0,-999.0,36,0.00,,,-99.99,498.399994,,2013-03-09 19:42:00,
2013-03-09 14:52:00,74.0,45.0,-100.00,NE,48,8.0,-999.0,36,0.00,,,-99.99,498.399994,,2013-03-09 19:52:00,
2013-03-09 15:01:00,74.0,47.0,-100.00,ENE,77,8.0,-999.0,39,0.00,,,-99.99,398.600006,,2013-03-09 20:01:00,
2013-03-09 15:11:00,73.0,47.0,-100.00,ENE,71,9.0,-999.0,40,0.00,,,-99.99,335.500000,,2013-03-09 20:11:00,
2013-03-09 15:22:00,73.0,47.0,-100.00,ENE,71,9.0,-999.0,40,0.00,,,-99.99,335.500000,,2013-03-09 20:22:00,
2013-03-09 15:32:00,73.0,48.0,-100.00,ENE,71,9.0,-999.0,40,0.00,,,-99.99,376.700012,,2013-03-09 20:32:00,
2013-03-09 15:42:00,74.0,48.0,-100.00,ENE,58,8.0,-999.0,40,0.00,,,-99.99,434.000000,,2013-03-09 20:42:00,
2013-03-09 15:52:00,74.0,48.0,-100.00,ENE,58,8.0,-999.0,40,0.00,,,-99.99,434.000000,,2013-03-09 20:52:00,
2013-03-09 16:02:00,74.0,48.0,-100.00,ENE,60,8.0,-999.0,40,0.00,,,-99.99,368.700012,,2013-03-09 21:02:00,
2013-03-09 16:12:00,73.0,48.0,-100.00,East,84,7.0,-999.0,41,0.00,,,-99.99,335.399994,,2013-03-09 21:12:00,
2013-03-09 16:22:00,73.0,48.0,-100.00,East,84,7.0,-999.0,41,0.00,,,-99.99,335.399994,,2013-03-09 21:22:00,
2013-03-09 16:32:00,73.0,48.0,-100.00,NE,56,8.0,-999.0,41,0.00,,,-99.99,247.699997,,2013-03-09 21:32:00,
2013-03-09 16:42:00,73.0,48.0,-100.00,ENE,65,7.0,-999.0,41,0.00,,,-99.99,221.199997,,2013-03-09 21:42:00,
2013-03-09 16:52:00,73.0,48.0,-100.00,ENE,65,7.0,-999.0,41,0.00,,,-99.99,221.199997,,2013-03-09 21:52:00,
2013-03-09 17:01:00,72.0,49.0,-100.00,NE,56,9.0,-999.0,43,0.00,,,-99.99,141.000000,,2013-03-09 22:01:00,
2013-03-09 17:11:00,71.0,49.0,-100.00,East,83,9.0,-999.0,45,0.00,,,-99.99,134.000000,,2013-03-09 22:11:00,
2013-03-09 17:21:00,71.0,49.0,-100.00,East,83,9.0,-999.0,45,0.00,,,-99.99,134.000000,,2013-03-09 22:21:00,
2013-03-09 17:32:00,71.0,49.0,-100.00,East,82,10.0,-999.0,46,0.00,,,-99.99,113.099998,,2013-03-09 22:32:00,
2013-03-09 17:42:00,70.0,49.0,-100.00,ENE,71,10.0,-999.0,47,0.00,,,-99.99,67.000000,,2013-03-09 22:42:00,
2013-03-09 17:52:00,70.0,49.0,-100.00,ENE,71,10.0,-999.0,47,0.00,,,-99.99,67.000000,,2013-03-09 22:52:00,
2013-03-09 18:01:00,69.0,50.0,-100.00,ENE,76,9.0,-999.0,49,0.00,,,-99.99,69.699997,,2013-03-09 23:01:00,
2013-03-09 18:11:00,68.0,50.0,-100.00,East,86,10.0,-999.0,51,0.00,,,-99.99,40.500000,,2013-03-09 23:11:00,
2013-03-09 18:21:00,68.0,50.0,-100.00,East,86,10.0,-999.0,51,0.00,,,-99.99,40.500000,,2013-03-09 23:21:00,
2013-03-09 18:32:00,68.0,49.0,-100.00,East,80,10.0,-999.0,51,0.00,,,-99.99,12.000000,,2013-03-09 23:32:00,
2013-03-09 18:42:00,67.0,49.0,-100.00,East,79,10.0,-999.0,53,0.00,,,-99.99,5.600000,,2013-03-09 23:42:00,
2013-03-09 18:52:00,67.0,49.0,-100.00,East,79,10.0,-999.0,53,0.00,,,-99.99,5.600000,,2013-03-09 23:52:00,
2013-03-09 19:01:00,66.0,49.0,-100.00,East,80,11.0,-999.0,54,0.00,,,-99.99,0.800000,,2013-03-10 00:01:00,
2013-03-09 19:11:00,65.0,49.0,-100.00,ENE,76,10.0,-999.0,56,0.00,,,-99.99,0.000000,,2013-03-10 00:11:00,
2013-03-09 19:22:00,65.0,49.0,-100.00,ENE,76,10.0,-999.0,56,0.00,,,-99.99,0.000000,,2013-03-10 00:22:00,
2013-03-09 19:32:00,64.0,49.0,-100.00,ENE,78,8.0,-999.0,59,0.00,,,-99.99,0.000000,,2013-03-10 00:32:00,
2013-03-09 19:42:00,63.0,50.0,-100.00,ENE,76,9.0,-999.0,61,0.00,,,-99.99,0.000000,,2013-03-10 00:42:00,
2013-03-09 19:52:00,63.0,50.0,-100.00,ENE,76,9.0,-999.0,61,0.00,,,-99.99,0.000000,,2013-03-10 00:52:00,
2013-03-09 20:01:00,63.0,50.0,-100.00,ENE,74,7.0,-999.0,63,0.00,,,-99.99,0.000000,,2013-03-10 01:01:00,
2013-03-09 20:11:00,62.0,51.0,-100.00,ENE,72,6.0,-999.0,66,0.00,,,-99.99,0.000000,,2013-03-10 01:11:00,
2013-03-09 20:21:00,62.0,51.0,-100.00,ENE,72,6.0,-999.0,66,0.00,,,-99.99,0.000000,,2013-03-10 01:21:00,
2013-03-09 20:32:00,61.0,51.0,-100.00,ENE,71,7.0,-999.0,67,0.00,,,-99.99,0.000000,,2013-03-10 01:32:00,
2013-03-09 20:42:00,61.0,50.0,-100.00,ENE,75,5.0,-999.0,68,0.00,,,-99.99,0.000000,,2013-03-10 01:42:00,
2013-03-09 20:52:00,61.0,50.0,-100.00,ENE,75,5.0,-999.0,68,0.00,,,-99.99,0.000000,,2013-03-10 01:52:00,
2013-03-09 21:01:00,60.0,50.0,-100.00,ENE,75,5.0,-999.0,69,0.00,,,-99.99,0.000000,,2013-03-10 02:01:00,
2013-03-09 21:11:00,60.0,50.0,-100.00,East,83,5.0,-999.0,70,0.00,,,-99.99,0.000000,,2013-03-10 02:11:00,
2013-03-09 21:22:00,60.0,50.0,-100.00,East,83,5.0,-999.0,70,0.00,,,-99.99,0.000000,,2013-03-10 02:22:00,
2013-03-09 21:32:00,59.0,50.0,-100.00,East,92,4.0,-999.0,72,0.00,,,-99.99,0.000000,,2013-03-10 02:32:00,
2013-03-09 21:42:00,59.0,50.0,-100.00,East,90,4.0,-999.0,73,0.00,,,-99.99,0.000000,,2013-03-10 02:42:00,
2013-03-09 21:52:00,59.0,50.0,-100.00,East,90,4.0,-999.0,73,0.00,,,-99.99,0.000000,,2013-03-10 02:52:00,
2013-03-09 22:02:00,58.0,50.0,-100.00,East,79,5.0,-999.0,74,0.00,,,-99.99,0.000000,,2013-03-10 03:02:00,
2013-03-09 22:12:00,57.0,50.0,-100.00,ENE,76,5.0,-999.0,75,0.00,,,-99.99,0.000000,,2013-03-10 03:12:00,
2013-03-09 22:22:00,57.0,50.0,-100.00,ENE,76,5.0,-999.0,75,0.00,,,-99.99,0.000000,,2013-03-10 03:22:00,
2013-03-09 22:32:00,57.0,50.0,-100.00,East,79,3.0,-999.0,76,0.00,,,-99.99,0.000000,,2013-03-10 03:32:00,
2013-03-09 22:42:00,57.0,50.0,-100.00,East,79,3.0,-999.0,76,0.00,,,-99.99,0.000000,,2013-03-10 03:42:00,
2013-03-09 22:52:00,56.0,50.0,-100.00,ENE,62,6.0,-999.0,78,0.00,,,-99.99,0.000000,,2013-03-10 03:52:00,
2013-03-09 23:01:00,57.0,51.0,-100.00,NE,54,5.0,-999.0,80,0.00,,,-99.99,0.000000,,2013-03-10 04:01:00,
2013-03-09 23:11:00,56.0,50.0,-100.00,ENE,66,5.0,-999.0,81,0.00,,,-99.99,0.000000,,2013-03-10 04:11:00,
2013-03-09 23:22:00,56.0,50.0,-100.00,ENE,66,5.0,-999.0,81,0.00,,,-99.99,0.000000,,2013-03-10 04:22:00,
2013-03-09 23:32:00,56.0,51.0,-100.00,ENE,57,7.0,-999.0,82,0.00,,,-99.99,0.000000,,2013-03-10 04:32:00,
2013-03-09 23:42:00,56.0,51.0,-100.00,NE,55,6.0,-999.0,82,0.00,,,-99.99,0.000000,,2013-03-10 04:42:00,
2013-03-09 23:52:00,56.0,51.0,-100.00,NE,55,6.0,-999.0,82,0.00,,,-99.99,0.000000,,2013-03-10 04:52:00,